Terminal Aerodrome Forecast
Issued by NWS Louisville, KY

Home | Current Version | Previous Version | Text Only | Print | Product List | Glossary On
Versions: 1 2 3 4 5 6 7 8 9 10 11 12 13 14 15 16 17
378
FTUS43 KLMK 301729
TAFBWG
TAF
KBWG 301729Z 3018/0118 14008KT P6SM VCSH BKN040
     FM010000 18011KT P6SM VCTS BKN040CB
      TEMPO 0102/0106 3SM -TSRA BR BKN025CB
     FM010600 21006KT P6SM BKN025
     FM011400 21009KT P6SM SCT040=

USA.gov is the U.S. government's official web portal to all federal, state and local government web resources and services.